sim
Sign-in with your pilot id or email,
or register
Callsign
Passwort

Schedule Details

Flight Number: EWG5708 (2)
Departure: Munich Airport (EDDM) at 10:50
Arrival: Pristina Adem Jashari International Airport (BKPR) at 12:40
Route: Eurowings Passenger Schedule. Enter filed route here before submitting Pirep.

Weather Information
Getting current METAR information for EDDM 260250Z 27011KT 9999 SCT016 BKN024 08/06 Q1000 NOSIG
Getting current METAR information for BKPR 260300Z 18012KT 9999 -SHRA FEW030CB SCT035 BKN070 16/13 Q0998 NOSIG

Schedule Frequency

Route Map